Time;durP1;ratioP1;P1;durP2;ratioP2;P2;SDS_P1;SDS_P2;PMS_P1;PMS_P2;Temp;Humidity;BMP_temperature;BMP_pressure;BME280_temperature;BME280_humidity;BME280_pressure;Samples;Min_cycle;Max_cycle;Signal;HPM_P1;HPM_P2
2021/01/13 00:02:06;;;;;;;0.80;0.80;;;19.70;43.80;;;;;;4987427;28;20491;-70
2021/01/13 00:04:32;;;;;;;0.90;0.90;;;19.70;43.90;;;;;;4978314;28;20986;-70
2021/01/13 00:06:59;;;;;;;1.93;0.73;;;19.70;44.00;;;;;;4985430;28;20838;-70
2021/01/13 00:09:25;;;;;;;0.70;0.70;;;19.60;43.90;;;;;;4990095;28;20504;-71
2021/01/13 00:11:54;;;;;;;3.47;0.93;;;19.60;44.00;;;;;;4991325;28;20489;-71
2021/01/13 00:14:20;;;;;;;2.00;1.27;;;19.60;44.00;;;;;;4988572;28;20487;-70
2021/01/13 00:16:46;;;;;;;3.07;1.00;;;19.60;44.00;;;;;;4990790;28;20489;-70
2021/01/13 00:19:12;;;;;;;3.57;1.00;;;19.60;44.10;;;;;;4988515;28;20492;-70
2021/01/13 00:21:38;;;;;;;2.20;1.23;;;19.50;44.00;;;;;;4989153;28;20490;-71
2021/01/13 00:24:07;;;;;;;2.17;1.00;;;19.50;44.00;;;;;;4989281;28;20487;-70
2021/01/13 00:26:33;;;;;;;0.83;0.83;;;19.50;43.90;;;;;;4988309;28;20461;-70
2021/01/13 00:28:59;;;;;;;2.27;0.80;;;19.50;43.70;;;;;;4988071;28;20488;-70
2021/01/13 00:31:25;;;;;;;0.80;0.80;;;19.50;43.70;;;;;;4988209;28;20480;-71
2021/01/13 00:33:52;;;;;;;3.17;0.83;;;19.50;43.70;;;;;;4987016;28;20555;-71
2021/01/13 00:36:20;;;;;;;1.13;1.00;;;19.50;43.70;;;;;;4985207;28;20489;-70
2021/01/13 00:38:46;;;;;;;2.30;1.10;;;19.50;43.70;;;;;;4988503;28;20492;-71
2021/01/13 00:41:13;;;;;;;1.80;0.80;;;19.60;43.80;;;;;;4987096;28;20485;-70
2021/01/13 00:43:40;;;;;;;2.97;1.13;;;19.50;43.90;;;;;;4976053;28;20473;-71
2021/01/13 00:46:06;;;;;;;4.60;1.20;;;19.50;43.90;;;;;;4985508;28;20499;-70
2021/01/13 00:48:32;;;;;;;1.63;0.77;;;19.50;44.00;;;;;;4986856;28;20480;-70
2021/01/13 00:50:58;;;;;;;2.43;0.73;;;19.50;44.00;;;;;;4989867;28;20550;-71
2021/01/13 00:53:24;;;;;;;3.23;0.90;;;19.50;43.90;;;;;;4988005;28;21115;-71
2021/01/13 00:55:51;;;;;;;1.30;0.90;;;19.50;43.90;;;;;;4986052;28;20894;-70
2021/01/13 00:58:18;;;;;;;3.13;1.63;;;19.50;44.00;;;;;;4990043;28;20970;-70
2021/01/13 01:00:44;;;;;;;0.80;0.80;;;19.50;43.90;;;;;;4981724;28;20562;-70
2021/01/13 01:03:10;;;;;;;0.70;0.60;;;19.50;44.00;;;;;;4999889;28;20472;-68
2021/01/13 01:05:36;;;;;;;1.13;1.10;;;19.50;44.00;;;;;;4985093;28;20551;-70
2021/01/13 01:08:02;;;;;;;2.13;1.23;;;19.50;44.00;;;;;;4987734;28;20505;-70
2021/01/13 01:10:29;;;;;;;0.80;0.80;;;19.50;44.00;;;;;;4981493;28;21439;-70
2021/01/13 01:12:56;;;;;;;0.80;0.80;;;19.40;43.80;;;;;;5000949;28;20485;-70
2021/01/13 01:15:23;;;;;;;1.60;0.83;;;19.40;43.80;;;;;;4987388;28;20485;-70
2021/01/13 01:17:49;;;;;;;1.77;1.07;;;19.40;43.80;;;;;;4985762;28;20488;-70
2021/01/13 01:20:15;;;;;;;1.00;1.00;;;19.40;43.80;;;;;;4986123;28;20594;-70
2021/01/13 01:22:52;;;;;;;2.70;0.90;;;19.40;43.70;;;;;;4986849;28;20497;-70
2021/01/13 01:25:18;;;;;;;1.00;0.70;;;19.40;43.60;;;;;;4984625;28;21099;-70
2021/01/13 01:27:47;;;;;;;7.13;0.80;;;19.40;43.60;;;;;;4989131;28;20488;-70
2021/01/13 01:30:14;;;;;;;2.97;1.30;;;19.40;43.50;;;;;;4993073;28;20487;-70
2021/01/13 01:32:41;;;;;;;1.70;0.83;;;19.40;43.50;;;;;;4986248;28;20536;-70
2021/01/13 01:35:07;;;;;;;1.07;0.70;;;19.50;43.60;;;;;;4983409;28;20567;-71
2021/01/13 01:37:34;;;;;;;3.40;1.13;;;19.50;43.40;;;;;;4988360;28;20492;-70
2021/01/13 01:40:00;;;;;;;0.90;0.90;;;19.40;43.50;;;;;;4986843;28;21056;-69
2021/01/13 01:42:26;;;;;;;7.80;1.07;;;19.40;43.60;;;;;;4986946;28;20503;-70
2021/01/13 01:44:54;;;;;;;1.10;0.90;;;19.40;43.60;;;;;;4986557;28;20497;-70
2021/01/13 01:47:20;;;;;;;0.80;0.53;;;19.40;43.60;;;;;;4985258;28;20599;-70
2021/01/13 01:49:47;;;;;;;1.40;0.80;;;19.40;43.60;;;;;;4980049;28;20504;-70
2021/01/13 01:52:16;;;;;;;4.53;0.80;;;19.40;43.50;;;;;;4996545;28;20485;-70
2021/01/13 01:54:43;;;;;;;1.20;0.83;;;19.40;43.60;;;;;;4980598;28;20555;-70
2021/01/13 01:57:10;;;;;;;2.13;0.70;;;19.40;43.50;;;;;;4987176;28;21057;-70
2021/01/13 01:59:43;;;;;;;1.53;1.00;;;19.40;43.50;;;;;;4986363;28;20485;-70
2021/01/13 02:02:09;;;;;;;1.77;0.70;;;19.40;43.50;;;;;;4987687;28;20571;-70
2021/01/13 02:04:36;;;;;;;2.27;0.80;;;19.40;43.60;;;;;;4988315;28;20485;-71
2021/01/13 02:07:28;;;;;;;1.47;0.60;;;19.40;43.50;;;;;;4982727;28;20595;-69
2021/01/13 02:09:55;;;;;;;1.67;0.63;;;19.40;43.60;;;;;;4982138;28;21147;-69
2021/01/13 02:12:26;;;;;;;1.30;0.60;;;19.40;43.40;;;;;;4984869;28;20480;-70
2021/01/13 02:14:53;;;;;;;4.10;0.90;;;19.40;43.40;;;;;;4986389;28;20528;-71
2021/01/13 02:17:23;;;;;;;2.30;1.00;;;19.40;43.40;;;;;;4988274;28;20500;-70
2021/01/13 02:20:11;;;;;;;0.80;0.80;;;19.40;43.40;;;;;;4988334;28;20908;-70
2021/01/13 02:22:53;;;;;;;0.80;0.57;;;19.40;44.10;;;;;;4976897;28;20469;-69
2021/01/13 02:25:49;;;;;;;0.93;0.73;;;19.40;43.30;;;;;;4981443;28;20480;-70
2021/01/13 02:28:19;;;;;;;2.00;0.87;;;19.50;43.20;;;;;;4979351;28;20992;-70
2021/01/13 02:30:56;;;;;;;3.43;0.77;;;19.50;43.00;;;;;;4982232;28;20492;-70
2021/01/13 02:33:25;;;;;;;6.53;0.83;;;19.50;43.10;;;;;;4994186;28;21075;-71
2021/01/13 02:36:06;;;;;;;0.73;0.73;;;19.40;43.10;;;;;;4985254;28;20516;-70
2021/01/13 02:38:33;;;;;;;0.93;0.80;;;19.40;43.10;;;;;;4988642;28;20510;-70
2021/01/13 02:40:59;;;;;;;1.53;0.80;;;19.40;43.10;;;;;;4989073;28;21407;-69
2021/01/13 02:43:27;;;;;;;1.13;0.90;;;19.40;43.00;;;;;;4985636;28;20485;-69
2021/01/13 02:45:53;;;;;;;1.00;0.70;;;19.40;43.20;;;;;;4983277;28;20485;-70
2021/01/13 02:48:20;;;;;;;1.73;1.00;;;19.40;43.10;;;;;;4986943;28;20496;-69
2021/01/13 02:50:51;;;;;;;2.57;0.90;;;19.40;43.20;;;;;;4988909;28;20489;-70
2021/01/13 02:53:50;;;;;;;2.20;1.50;;;19.40;43.00;;;;;;4985334;28;20556;-70
2021/01/13 02:56:23;;;;;;;1.03;0.80;;;19.50;43.10;;;;;;4977898;28;20484;-69
2021/01/13 02:58:52;;;;;;;1.60;0.93;;;19.40;43.10;;;;;;4980663;28;20480;-70
2021/01/13 03:01:18;;;;;;;2.30;0.90;;;19.40;43.20;;;;;;4989174;28;20846;-69
2021/01/13 03:03:44;;;;;;;0.70;0.70;;;19.40;43.30;;;;;;4993971;28;20484;-69
2021/01/13 03:06:11;;;;;;;0.80;0.63;;;19.40;43.20;;;;;;4981642;28;20498;-69
2021/01/13 03:08:48;;;;;;;1.20;0.90;;;19.40;43.30;;;;;;4978739;28;20488;-69
2021/01/13 03:11:18;;;;;;;1.90;0.83;;;19.40;43.30;;;;;;4984243;28;20476;-70
2021/01/13 03:13:45;;;;;;;3.27;1.07;;;19.40;43.30;;;;;;4979708;28;20487;-69
2021/01/13 03:16:12;;;;;;;1.27;0.97;;;19.30;43.10;;;;;;4989795;28;20492;-69
2021/01/13 03:18:46;;;;;;;2.93;1.17;;;19.30;43.30;;;;;;4994156;28;20590;-69
2021/01/13 03:21:15;;;;;;;2.20;0.87;;;19.30;43.20;;;;;;4977772;28;21056;-70
2021/01/13 03:23:45;;;;;;;1.80;0.77;;;19.30;43.30;;;;;;4990919;28;20476;-69
2021/01/13 03:26:11;;;;;;;1.70;0.70;;;19.30;43.30;;;;;;4992319;28;20473;-70
2021/01/13 03:28:38;;;;;;;1.20;1.10;;;19.30;43.40;;;;;;4992500;28;20480;-70
2021/01/13 03:31:05;;;;;;;1.57;1.00;;;19.30;43.30;;;;;;4988803;28;20484;-69
2021/01/13 03:34:00;;;;;;;2.23;0.87;;;19.30;43.30;;;;;;4990434;28;21094;-70
2021/01/13 03:36:33;;;;;;;3.50;1.20;;;19.30;43.20;;;;;;4988626;28;20488;-69
2021/01/13 03:39:04;;;;;;;0.70;0.70;;;19.30;43.30;;;;;;4990264;28;20949;-69
2021/01/13 03:41:39;;;;;;;1.40;0.60;;;19.30;43.20;;;;;;4983625;28;20876;-71
2021/01/13 03:44:06;;;;;;;2.53;1.10;;;19.30;43.20;;;;;;5000639;28;20523;-69
2021/01/13 03:46:33;;;;;;;2.50;1.00;;;19.30;43.20;;;;;;4981466;28;22689;-69
2021/01/13 03:49:00;;;;;;;2.37;1.07;;;19.30;43.20;;;;;;4983655;28;20491;-70
2021/01/13 03:51:45;;;;;;;5.03;1.10;;;19.40;43.20;;;;;;4983899;28;20939;-69
2021/01/13 03:54:12;;;;;;;1.17;0.70;;;19.40;43.30;;;;;;4994468;28;20567;-70
2021/01/13 03:56:47;;;;;;;1.37;0.90;;;19.30;43.20;;;;;;4988731;28;20484;-70
2021/01/13 03:59:15;;;;;;;2.20;1.30;;;19.30;43.30;;;;;;4982006;28;21067;-69
2021/01/13 04:01:47;;;;;;;5.23;0.97;;;19.30;43.30;;;;;;4978236;28;20872;-69
2021/01/13 04:04:49;;;;;;;1.47;0.93;;;19.30;43.30;;;;;;4967557;28;20472;-69
2021/01/13 04:07:15;;;;;;;1.73;1.10;;;19.30;43.50;;;;;;4986830;28;20472;-69
2021/01/13 04:09:41;;;;;;;2.70;1.30;;;19.30;43.40;;;;;;4988805;28;20499;-70
2021/01/13 04:12:12;;;;;;;6.50;1.40;;;19.20;43.30;;;;;;4989167;28;20483;-70
2021/01/13 04:14:54;;;;;;;0.97;0.70;;;19.10;43.20;;;;;;4990090;28;20618;-70
2021/01/13 04:17:20;;;;;;;0.73;0.70;;;19.10;43.10;;;;;;4986936;28;20489;-69
2021/01/13 04:19:47;;;;;;;3.30;0.90;;;19.10;43.00;;;;;;4990369;28;20496;-70
2021/01/13 04:22:14;;;;;;;2.10;0.97;;;19.20;42.80;;;;;;4989250;28;21050;-69
2021/01/13 04:24:41;;;;;;;3.60;1.47;;;19.20;42.50;;;;;;4990444;28;20542;-69
2021/01/13 04:27:10;;;;;;;1.00;0.80;;;19.20;42.30;;;;;;4987179;28;20481;-69
2021/01/13 04:29:36;;;;;;;2.87;0.90;;;19.20;42.50;;;;;;4990747;28;20488;-69
2021/01/13 04:32:03;;;;;;;4.67;0.93;;;19.30;42.50;;;;;;4990115;28;20496;-70
2021/01/13 04:34:30;;;;;;;1.83;1.00;;;19.40;42.20;;;;;;4991614;28;20496;-70
2021/01/13 04:36:57;;;;;;;1.20;1.00;;;19.40;42.10;;;;;;4990617;28;20496;-69
2021/01/13 04:39:24;;;;;;;1.70;0.60;;;19.40;42.40;;;;;;4990122;28;20560;-70
2021/01/13 04:42:00;;;;;;;2.10;0.90;;;19.40;42.50;;;;;;4991724;28;20485;-70
2021/01/13 04:44:30;;;;;;;0.90;0.90;;;19.40;42.30;;;;;;4989563;28;20511;-70
2021/01/13 04:46:56;;;;;;;1.63;0.70;;;19.40;42.40;;;;;;4991535;28;20552;-69
2021/01/13 04:49:22;;;;;;;2.23;1.07;;;19.40;42.50;;;;;;4989037;28;20484;-70
2021/01/13 04:51:49;;;;;;;2.40;0.90;;;19.40;42.50;;;;;;4991744;28;21199;-70
2021/01/13 04:54:17;;;;;;;0.70;0.70;;;19.30;42.60;;;;;;4990281;28;20500;-70
2021/01/13 04:57:28;;;;;;;0.70;0.70;;;19.30;42.90;;;;;;4975443;28;21003;-71
2021/01/13 05:00:06;;;;;;;1.60;1.07;;;19.20;43.00;;;;;;4988051;28;20484;-70
2021/01/13 05:03:15;;;;;;;2.60;0.90;;;19.20;43.20;;;;;;4991211;28;21074;-70
2021/01/13 05:05:51;;;;;;;1.70;1.50;;;19.20;43.10;;;;;;4976531;28;20472;-69
2021/01/13 05:08:29;;;;;;;0.80;0.80;;;19.20;43.30;;;;;;4953679;28;20472;-70
2021/01/13 05:11:08;;;;;;;2.60;0.80;;;19.10;42.90;;;;;;4985335;28;20881;-70
2021/01/13 05:13:35;;;;;;;3.73;1.30;;;19.10;42.80;;;;;;4990953;28;20912;-70
2021/01/13 05:16:08;;;;;;;3.80;1.60;;;19.20;42.70;;;;;;4986944;28;21048;-70
2021/01/13 05:18:52;;;;;;;1.37;0.63;;;19.10;42.70;;;;;;4990643;28;20954;-69
2021/01/13 05:21:18;;;;;;;0.93;0.67;;;19.20;43.20;;;;;;4976384;28;20928;-69
2021/01/13 05:23:45;;;;;;;1.70;1.20;;;19.20;42.80;;;;;;4989763;28;20488;-70
2021/01/13 05:26:13;;;;;;;1.17;0.80;;;19.20;42.70;;;;;;4987298;28;20480;-70
2021/01/13 05:28:40;;;;;;;1.77;0.70;;;19.20;42.70;;;;;;4964652;28;20552;-70
2021/01/13 05:31:08;;;;;;;0.60;0.60;;;19.20;42.70;;;;;;4982863;28;20488;-69
2021/01/13 05:33:34;;;;;;;3.00;1.10;;;19.20;42.40;;;;;;4989437;28;20485;-69
2021/01/13 05:36:02;;;;;;;1.20;1.03;;;19.20;42.50;;;;;;4974380;28;20495;-70
2021/01/13 05:39:02;;;;;;;1.13;1.00;;;19.20;42.70;;;;;;4990618;28;20508;-70
2021/01/13 05:41:30;;;;;;;2.83;0.97;;;19.20;42.70;;;;;;4990911;28;20551;-70
2021/01/13 05:43:57;;;;;;;3.17;1.23;;;19.30;42.70;;;;;;4987531;28;20493;-69
2021/01/13 05:46:23;;;;;;;1.27;0.97;;;19.30;42.50;;;;;;4986523;28;20515;-70
2021/01/13 05:48:50;;;;;;;0.60;0.50;;;19.30;42.30;;;;;;4988190;28;21056;-70
2021/01/13 05:51:24;;;;;;;2.70;0.93;;;19.30;42.10;;;;;;4989630;28;20962;-69
2021/01/13 05:53:50;;;;;;;2.30;0.80;;;19.40;41.90;;;;;;4981932;28;20484;-70
2021/01/13 05:56:17;;;;;;;3.03;0.90;;;19.40;41.70;;;;;;4986678;28;20507;-70
2021/01/13 05:58:44;;;;;;;0.60;0.60;;;19.40;41.50;;;;;;4991477;28;20495;-70
2021/01/13 06:01:20;;;;;;;1.20;1.00;;;19.40;41.70;;;;;;4995146;28;20480;-70
2021/01/13 06:03:46;;;;;;;2.70;1.33;;;19.40;41.90;;;;;;4987772;28;20559;-69
2021/01/13 06:06:13;;;;;;;1.23;0.90;;;19.40;41.70;;;;;;4983996;28;20484;-69
2021/01/13 06:08:39;;;;;;;0.83;0.60;;;19.50;41.50;;;;;;4990045;28;20515;-70
2021/01/13 06:11:05;;;;;;;1.57;0.93;;;19.50;41.30;;;;;;4988501;28;20518;-69
2021/01/13 06:13:32;;;;;;;4.00;0.90;;;19.40;41.80;;;;;;4977773;28;20883;-70
2021/01/13 06:16:03;;;;;;;0.70;0.70;;;19.50;41.50;;;;;;4985335;28;20489;-70
2021/01/13 06:18:30;;;;;;;1.07;0.80;;;19.60;41.50;;;;;;4990274;28;21040;-69
2021/01/13 06:20:58;;;;;;;4.80;0.97;;;19.60;41.30;;;;;;4978471;28;20481;-69
2021/01/13 06:23:28;;;;;;;1.20;0.90;;;19.70;41.20;;;;;;4987469;28;20542;-70
2021/01/13 06:25:55;;;;;;;2.43;0.90;;;19.70;41.00;;;;;;4984156;28;21016;-69
2021/01/13 06:28:26;;;;;;;0.67;0.67;;;19.70;41.00;;;;;;4988207;28;20499;-69
2021/01/13 06:31:06;;;;;;;2.03;0.70;;;19.70;41.00;;;;;;4987281;28;20485;-70
2021/01/13 06:33:48;;;;;;;0.90;0.83;;;19.60;41.10;;;;;;4988340;28;20496;-69
2021/01/13 06:36:21;;;;;;;9.60;0.80;;;19.60;41.30;;;;;;4989364;28;20478;-70
2021/01/13 06:38:53;;;;;;;1.87;0.80;;;19.60;41.20;;;;;;4959343;28;20511;-70
2021/01/13 06:41:19;;;;;;;1.20;0.80;;;19.50;40.90;;;;;;4958577;28;21088;-70
2021/01/13 06:43:56;;;;;;;3.00;0.70;;;19.50;40.60;;;;;;4971558;28;20564;-70
2021/01/13 06:46:23;;;;;;;2.17;1.07;;;19.50;40.80;;;;;;4989037;28;21267;-70
2021/01/13 06:48:49;;;;;;;1.73;1.23;;;19.50;41.10;;;;;;4991534;28;20484;-70
2021/01/13 06:51:16;;;;;;;0.83;0.83;;;19.60;41.10;;;;;;4975223;28;20469;-70
2021/01/13 06:53:44;;;;;;;1.00;0.90;;;19.70;41.60;;;;;;4959411;28;20497;-70
2021/01/13 06:56:10;;;;;;;1.37;1.37;;;19.70;41.20;;;;;;4965126;28;20485;-69
2021/01/13 06:58:37;;;;;;;1.27;0.97;;;19.70;41.10;;;;;;4973714;28;20489;-70
2021/01/13 07:01:04;;;;;;;1.37;0.80;;;19.80;41.30;;;;;;4971370;28;20932;-70
2021/01/13 07:03:31;;;;;;;6.50;1.00;;;19.80;41.40;;;;;;4971669;28;20492;-69
2021/01/13 07:06:00;;;;;;;3.67;0.90;;;19.80;41.50;;;;;;4970285;28;20497;-69
2021/01/13 07:08:26;;;;;;;3.73;0.70;;;19.70;41.40;;;;;;4959736;28;20486;-70
2021/01/13 07:11:03;;;;;;;0.80;0.73;;;19.70;41.50;;;;;;4957360;28;20497;-70
2021/01/13 07:13:29;;;;;;;2.80;1.30;;;19.60;41.60;;;;;;4974659;28;20919;-70
2021/01/13 07:15:58;;;;;;;1.80;1.20;;;19.60;41.60;;;;;;4967712;28;21001;-70
2021/01/13 07:18:24;;;;;;;1.93;0.83;;;19.60;41.70;;;;;;4971628;28;20481;-69
2021/01/13 07:20:51;;;;;;;2.03;0.60;;;19.60;41.80;;;;;;4971687;28;20548;-70
2021/01/13 07:23:17;;;;;;;1.10;0.73;;;19.60;41.90;;;;;;4960438;28;20485;-70
2021/01/13 07:25:45;;;;;;;1.47;0.97;;;19.60;41.90;;;;;;4969662;28;20489;-70
2021/01/13 07:28:12;;;;;;;1.00;0.60;;;19.60;42.00;;;;;;4974677;28;20521;-70
2021/01/13 07:30:39;;;;;;;1.43;0.83;;;19.50;41.70;;;;;;4971540;28;20847;-70
2021/01/13 07:33:09;;;;;;;1.00;0.67;;;19.50;41.90;;;;;;4970120;28;20556;-70
2021/01/13 07:35:35;;;;;;;2.00;0.77;;;19.60;42.10;;;;;;4959593;28;20532;-70
2021/01/13 07:38:02;;;;;;;1.57;0.70;;;19.60;42.30;;;;;;4971234;28;21613;-70
2021/01/13 07:40:32;;;;;;;2.07;1.23;;;19.60;42.20;;;;;;4965330;28;20492;-70
2021/01/13 07:43:08;;;;;;;2.30;1.23;;;19.60;42.30;;;;;;4980552;28;20567;-69
2021/01/13 07:45:39;;;;;;;1.10;0.70;;;19.60;42.30;;;;;;4970973;28;20508;-69
2021/01/13 07:48:34;;;;;;;1.23;0.63;;;19.60;42.20;;;;;;4971372;28;20497;-70
2021/01/13 07:51:06;;;;;;;3.83;0.80;;;19.50;42.20;;;;;;4971771;28;20635;-70
2021/01/13 07:53:36;;;;;;;2.30;0.50;;;19.50;42.30;;;;;;4971230;28;20579;-69
2021/01/13 07:56:03;;;;;;;2.10;0.97;;;19.50;42.40;;;;;;4969160;28;21080;-70
2021/01/13 07:58:30;;;;;;;2.37;0.90;;;19.50;42.50;;;;;;4961298;28;20512;-70
2021/01/13 08:01:04;;;;;;;0.80;0.80;;;19.40;42.40;;;;;;4970829;28;20520;-70
2021/01/13 08:03:58;;;;;;;1.17;0.80;;;19.50;42.60;;;;;;4973734;28;20484;-70
2021/01/13 08:06:32;;;;;;;2.60;0.80;;;19.40;42.70;;;;;;4957074;28;21026;-69
2021/01/13 08:09:10;;;;;;;1.70;0.80;;;19.40;42.60;;;;;;4954242;28;20544;-70
2021/01/13 08:12:16;;;;;;;2.73;0.87;;;19.40;42.60;;;;;;4971017;28;20485;-71
2021/01/13 08:15:16;;;;;;;1.97;1.37;;;19.40;43.30;;;;;;4973233;28;20490;-70
2021/01/13 08:17:54;;;;;;;3.20;1.20;;;19.40;42.60;;;;;;4990625;28;20872;-71
2021/01/13 08:20:37;;;;;;;0.93;0.93;;;19.40;42.50;;;;;;4974560;28;20488;-70
2021/01/13 08:23:09;;;;;;;1.47;1.00;;;19.40;42.60;;;;;;4992680;28;20562;-69
2021/01/13 08:25:37;;;;;;;1.00;1.00;;;19.40;42.60;;;;;;4990817;28;20480;-70
2021/01/13 08:28:03;;;;;;;1.37;1.00;;;19.40;42.60;;;;;;4990906;28;20527;-70
2021/01/13 08:30:30;;;;;;;0.93;0.57;;;19.40;42.40;;;;;;4990103;28;20551;-69
2021/01/13 08:32:57;;;;;;;0.90;0.70;;;19.40;42.70;;;;;;4988311;28;20496;-69
2021/01/13 08:35:32;;;;;;;1.57;1.40;;;19.40;42.70;;;;;;4989970;28;21636;-70
2021/01/13 08:38:06;;;;;;;1.57;0.70;;;19.50;42.90;;;;;;4989261;28;20511;-70
2021/01/13 08:40:33;;;;;;;1.10;0.70;;;19.50;42.80;;;;;;4989060;28;20488;-70
2021/01/13 08:43:08;;;;;;;2.57;0.90;;;19.50;42.80;;;;;;4990102;28;20506;-69
2021/01/13 08:45:36;;;;;;;1.33;0.70;;;19.50;42.80;;;;;;4988810;28;20483;-70
2021/01/13 08:48:07;;;;;;;3.43;1.27;;;19.50;42.70;;;;;;4993246;28;20492;-70
2021/01/13 08:50:34;;;;;;;1.00;0.87;;;19.50;42.70;;;;;;4981462;28;20493;-70
2021/01/13 08:53:02;;;;;;;0.67;0.57;;;19.50;42.70;;;;;;4982804;28;20488;-70
2021/01/13 08:55:28;;;;;;;0.60;0.60;;;19.50;42.70;;;;;;4992960;28;20493;-70
2021/01/13 08:57:59;;;;;;;1.50;0.60;;;19.50;42.70;;;;;;4989278;28;20493;-70
2021/01/13 09:00:28;;;;;;;1.00;0.90;;;19.50;42.70;;;;;;4981093;28;20523;-70
2021/01/13 09:03:01;;;;;;;0.90;0.77;;;19.50;42.80;;;;;;4987586;28;20485;-70
2021/01/13 09:05:28;;;;;;;1.80;0.80;;;19.50;42.80;;;;;;4984455;28;21124;-70
2021/01/13 09:07:55;;;;;;;3.20;1.17;;;19.60;42.80;;;;;;4988285;28;20872;-70
2021/01/13 09:10:21;;;;;;;0.73;0.50;;;19.60;42.60;;;;;;4989586;28;21079;-70
2021/01/13 09:12:47;;;;;;;2.47;0.97;;;19.60;42.60;;;;;;4988927;28;20543;-71
2021/01/13 09:15:30;;;;;;;2.00;1.53;;;19.60;42.70;;;;;;4977092;28;20496;-70
2021/01/13 09:17:57;;;;;;;1.33;0.80;;;19.60;42.60;;;;;;4966629;28;20485;-70
2021/01/13 09:20:25;;;;;;;2.00;1.33;;;19.60;42.70;;;;;;4988213;28;20485;-70
2021/01/13 09:22:53;;;;;;;2.73;1.00;;;19.60;42.80;;;;;;4990096;28;20540;-70
2021/01/13 09:25:20;;;;;;;0.73;0.63;;;19.60;43.00;;;;;;4976875;28;20556;-71
2021/01/13 09:27:48;;;;;;;1.43;0.70;;;19.60;42.90;;;;;;4990217;28;20566;-70
2021/01/13 09:30:36;;;;;;;1.87;0.83;;;19.60;42.70;;;;;;4988331;28;20523;-70
2021/01/13 09:33:05;;;;;;;1.13;1.03;;;19.70;42.60;;;;;;4986724;28;20615;-70
2021/01/13 09:35:32;;;;;;;1.23;1.10;;;19.70;42.60;;;;;;4988123;28;20519;-70
2021/01/13 09:38:00;;;;;;;3.00;0.90;;;19.60;42.50;;;;;;4996538;28;20500;-71
2021/01/13 09:40:54;;;;;;;5.63;1.10;;;19.70;42.50;;;;;;4987968;28;20550;-71
2021/01/13 09:43:24;;;;;;;3.40;0.70;;;19.70;42.30;;;;;;4983106;28;20470;-71
2021/01/13 09:45:51;;;;;;;0.87;0.70;;;19.70;42.30;;;;;;4982929;28;20484;-70
2021/01/13 09:48:18;;;;;;;4.80;0.93;;;19.70;42.40;;;;;;4980020;28;20575;-70
2021/01/13 09:50:44;;;;;;;0.70;0.67;;;19.70;42.30;;;;;;4985654;28;20496;-71
2021/01/13 09:53:11;;;;;;;3.33;0.93;;;19.70;42.30;;;;;;4987281;28;20488;-70
2021/01/13 09:55:37;;;;;;;0.60;0.60;;;19.70;42.30;;;;;;4987438;28;20988;-70
2021/01/13 09:58:14;;;;;;;5.07;1.00;;;19.70;42.30;;;;;;4989890;28;20489;-70
2021/01/13 10:00:40;;;;;;;1.83;0.73;;;19.70;42.20;;;;;;4987251;28;20488;-70
2021/01/13 10:03:07;;;;;;;1.53;0.93;;;19.70;42.60;;;;;;4988959;28;20481;-71
2021/01/13 10:05:34;;;;;;;5.53;1.23;;;19.70;42.20;;;;;;4976436;28;20480;-70
2021/01/13 10:08:00;;;;;;;2.20;0.80;;;19.70;42.20;;;;;;4984261;28;20492;-71
2021/01/13 10:10:26;;;;;;;0.70;0.70;;;19.80;42.40;;;;;;4987751;28;20516;-70
2021/01/13 10:12:52;;;;;;;4.70;1.20;;;19.80;42.40;;;;;;4990419;28;20484;-71
2021/01/13 10:15:20;;;;;;;0.80;0.80;;;19.80;42.50;;;;;;4975823;28;20488;-71
2021/01/13 10:17:46;;;;;;;1.23;0.83;;;19.80;42.50;;;;;;4987051;28;20481;-71
2021/01/13 10:20:15;;;;;;;1.63;0.90;;;19.80;42.40;;;;;;4983900;28;20504;-71
2021/01/13 10:22:41;;;;;;;2.50;0.80;;;19.80;42.40;;;;;;5003336;28;20531;-68
2021/01/13 10:25:08;;;;;;;2.30;1.20;;;19.80;42.50;;;;;;4984945;28;20480;-71
2021/01/13 10:27:41;;;;;;;3.30;0.80;;;19.80;42.50;;;;;;4981086;28;20468;-71
2021/01/13 10:30:08;;;;;;;2.20;1.30;;;19.70;42.30;;;;;;5003794;28;20480;-72
2021/01/13 10:32:46;;;;;;;1.10;0.97;;;19.80;42.50;;;;;;4976951;28;20557;-71
2021/01/13 10:35:14;;;;;;;2.80;1.17;;;19.80;42.40;;;;;;4985504;28;20483;-71
2021/01/13 10:37:47;;;;;;;3.03;0.97;;;19.70;42.40;;;;;;4989603;28;20519;-71
2021/01/13 10:40:15;;;;;;;2.27;1.00;;;19.70;42.40;;;;;;4980687;28;20524;-70
2021/01/13 10:42:41;;;;;;;1.73;1.00;;;19.80;42.60;;;;;;4987106;28;21083;-70
2021/01/13 10:45:12;;;;;;;2.77;0.97;;;19.70;42.40;;;;;;4987573;28;20492;-71
2021/01/13 10:47:40;;;;;;;3.17;1.20;;;19.70;42.40;;;;;;4976911;28;21010;-70
2021/01/13 10:50:08;;;;;;;1.37;0.90;;;19.70;42.50;;;;;;4987715;28;20476;-71
2021/01/13 10:52:35;;;;;;;1.80;0.80;;;19.70;42.50;;;;;;4989609;28;20837;-70
2021/01/13 10:55:01;;;;;;;2.30;0.80;;;19.70;42.50;;;;;;4987819;28;20488;-71
2021/01/13 10:57:29;;;;;;;3.13;1.47;;;19.70;42.50;;;;;;4990595;28;20480;-70
2021/01/13 11:00:05;;;;;;;2.40;0.93;;;19.70;42.50;;;;;;4978110;28;20500;-70
2021/01/13 11:02:31;;;;;;;0.90;0.70;;;19.70;42.50;;;;;;4986442;28;20479;-70
2021/01/13 11:04:59;;;;;;;1.20;1.00;;;19.70;42.60;;;;;;4986568;28;20543;-70
2021/01/13 11:07:25;;;;;;;2.83;1.33;;;19.70;42.60;;;;;;4970862;28;20934;-70
2021/01/13 11:09:52;;;;;;;1.20;0.87;;;19.70;42.70;;;;;;4998567;28;20883;-70
2021/01/13 11:12:19;;;;;;;1.33;0.80;;;19.70;42.70;;;;;;4988257;28;20822;-70
2021/01/13 11:14:47;;;;;;;1.67;1.57;;;19.70;42.80;;;;;;4988473;28;20476;-70
2021/01/13 11:17:17;;;;;;;2.00;1.00;;;19.70;42.80;;;;;;4986766;28;20484;-71
2021/01/13 11:19:45;;;;;;;3.77;0.90;;;19.80;42.90;;;;;;4990757;28;20512;-70
2021/01/13 11:22:11;;;;;;;2.63;1.40;;;19.70;42.80;;;;;;4991941;28;20484;-69
2021/01/13 11:24:39;;;;;;;5.40;1.00;;;19.80;42.90;;;;;;4992428;28;20499;-70
2021/01/13 11:27:08;;;;;;;5.07;1.23;;;19.80;42.80;;;;;;4986753;28;20558;-70
2021/01/13 11:29:36;;;;;;;2.57;0.83;;;19.70;42.70;;;;;;4989323;28;20507;-71
2021/01/13 11:32:03;;;;;;;1.97;0.80;;;19.70;42.70;;;;;;4991928;28;20477;-70
2021/01/13 11:34:29;;;;;;;1.60;1.00;;;19.70;42.80;;;;;;4996858;28;20487;-70
2021/01/13 11:37:29;;;;;;;1.20;0.90;;;19.70;42.90;;;;;;4989044;28;20484;-70
2021/01/13 11:40:38;;;;;;;4.00;1.00;;;19.70;42.90;;;;;;4980637;28;20492;-72
2021/01/13 11:43:46;;;;;;;2.50;0.90;;;19.70;42.80;;;;;;4908356;29;20511;-71
2021/01/13 11:46:14;;;;;;;1.10;0.93;;;19.80;42.80;;;;;;4987869;28;20492;-71
2021/01/13 11:49:22;;;;;;;1.27;1.10;;;19.90;42.90;;;;;;4995868;28;20904;-72
2021/01/13 11:51:50;;;;;;;3.17;0.90;;;19.80;42.80;;;;;;4972759;28;21669;-70
2021/01/13 11:54:23;;;;;;;0.90;0.87;;;19.70;42.80;;;;;;4991172;28;20534;-70
2021/01/13 11:56:50;;;;;;;3.60;1.10;;;19.70;42.80;;;;;;4988177;28;20504;-70
2021/01/13 11:59:27;;;;;;;6.10;1.30;;;19.70;42.80;;;;;;4992526;28;20483;-70
2021/01/13 12:01:54;;;;;;;5.97;1.27;;;19.70;43.00;;;;;;4970094;28;20513;-70
2021/01/13 12:04:20;;;;;;;2.03;0.90;;;19.70;42.80;;;;;;4975875;28;20547;-70
2021/01/13 12:06:56;;;;;;;1.70;1.17;;;19.70;42.80;;;;;;4985169;28;20488;-70
2021/01/13 12:09:22;;;;;;;1.40;0.90;;;19.60;42.80;;;;;;4985207;28;20480;-71
2021/01/13 12:11:49;;;;;;;2.40;0.90;;;19.70;42.90;;;;;;4984240;28;20548;-69
2021/01/13 12:14:15;;;;;;;4.53;0.93;;;19.70;42.80;;;;;;4989929;28;20477;-70
2021/01/13 12:16:41;;;;;;;3.60;1.03;;;19.70;42.90;;;;;;4980191;28;20538;-70
2021/01/13 12:19:08;;;;;;;1.57;1.33;;;19.80;42.90;;;;;;4989717;28;21008;-70
2021/01/13 12:21:34;;;;;;;2.60;0.90;;;19.80;42.80;;;;;;4991693;28;20564;-70
2021/01/13 12:24:13;;;;;;;4.00;1.27;;;19.70;42.90;;;;;;4993185;28;20493;-70
2021/01/13 12:26:40;;;;;;;4.10;2.10;;;19.70;42.80;;;;;;4982162;28;21862;-70
2021/01/13 12:29:14;;;;;;;2.27;1.27;;;19.60;43.00;;;;;;4994482;28;20484;-70
2021/01/13 12:31:41;;;;;;;2.97;1.20;;;19.60;42.70;;;;;;4990886;28;20478;-70
2021/01/13 12:34:13;;;;;;;2.97;0.90;;;19.70;43.50;;;;;;4989749;28;20472;-71
2021/01/13 12:36:40;;;;;;;1.70;0.90;;;19.70;42.70;;;;;;4988579;28;20495;-70
2021/01/13 12:39:06;;;;;;;1.83;0.90;;;19.60;42.50;;;;;;4990256;28;20542;-70
2021/01/13 12:41:33;;;;;;;3.77;1.40;;;19.60;42.50;;;;;;4990649;28;20983;-70
2021/01/13 12:44:02;;;;;;;3.30;1.20;;;19.60;42.40;;;;;;4990290;28;21528;-70
2021/01/13 12:46:29;;;;;;;4.17;1.63;;;19.70;42.60;;;;;;4985085;28;20472;-70
2021/01/13 12:48:56;;;;;;;1.83;1.53;;;19.60;42.60;;;;;;4991357;28;20957;-69
2021/01/13 12:51:23;;;;;;;1.30;1.13;;;19.70;42.50;;;;;;4978236;28;20480;-70
2021/01/13 12:53:49;;;;;;;2.30;1.00;;;19.70;42.60;;;;;;4991298;28;20499;-70
2021/01/13 12:56:26;;;;;;;3.40;1.13;;;19.70;42.70;;;;;;4981316;28;20492;-69
2021/01/13 12:58:52;;;;;;;2.63;1.13;;;19.70;42.70;;;;;;4991174;28;20835;-70
2021/01/13 13:01:18;;;;;;;4.53;1.30;;;19.70;42.60;;;;;;4989330;28;20488;-70
2021/01/13 13:03:45;;;;;;;3.77;1.50;;;19.70;42.60;;;;;;4992058;28;20480;-70
2021/01/13 13:06:13;;;;;;;1.50;1.10;;;19.70;42.60;;;;;;4985278;28;20476;-70